sensor_id;sensor_type;location;lat;lon;timestamp;pressure;altitude;pressure_sealevel;temperature;humidity
47260;BME280;32999;52.412;4.890;2022-11-18T00:02:59;99461.19;;;9.04;100.00
47260;BME280;32999;52.412;4.890;2022-11-18T00:08:12;99463.25;;;9.02;100.00
47260;BME280;32999;52.412;4.890;2022-11-18T00:31:47;99501.22;;;8.77;100.00
47260;BME280;32999;52.412;4.890;2022-11-18T00:37:15;99509.22;;;8.77;100.00
47260;BME280;32999;52.412;4.890;2022-11-18T00:42:21;99511.25;;;8.89;100.00
47260;BME280;32999;52.412;4.890;2022-11-18T00:47:45;99520.69;;;8.78;100.00
47260;BME280;32999;52.412;4.890;2022-11-18T00:52:47;99528.44;;;8.93;100.00
47260;BME280;32999;52.412;4.890;2022-11-18T02:22:52;99628.81;;;8.33;100.00
47260;BME280;32999;52.412;4.890;2022-11-18T03:29:31;99687.41;;;8.46;100.00
47260;BME280;32999;52.412;4.890;2022-11-18T03:34:40;99685.63;;;8.66;100.00
47260;BME280;32999;52.412;4.890;2022-11-18T03:39:52;99692.78;;;8.59;100.00
47260;BME280;32999;52.412;4.890;2022-11-18T03:45:25;99691.56;;;8.55;100.00
47260;BME280;32999;52.412;4.890;2022-11-18T03:56:12;99699.91;;;8.45;100.00
47260;BME280;32999;52.412;4.890;2022-11-18T04:01:18;99703.81;;;8.49;100.00
47260;BME280;32999;52.412;4.890;2022-11-18T04:06:28;99713.28;;;8.59;100.00
47260;BME280;32999;52.412;4.890;2022-11-18T04:11:46;99713.31;;;8.65;100.00
47260;BME280;32999;52.412;4.890;2022-11-18T04:17:09;99719.03;;;8.69;100.00
47260;BME280;32999;52.412;4.890;2022-11-18T04:28:33;99738.84;;;8.53;100.00
47260;BME280;32999;52.412;4.890;2022-11-18T04:33:36;99757.75;;;8.65;100.00
47260;BME280;32999;52.412;4.890;2022-11-18T04:38:42;99762.25;;;8.64;100.00
47260;BME280;32999;52.412;4.890;2022-11-18T04:49:46;99780.69;;;8.59;100.00
47260;BME280;32999;52.412;4.890;2022-11-18T04:54:49;99775.56;;;8.64;100.00
47260;BME280;32999;52.412;4.890;2022-11-18T05:11:34;99798.88;;;8.56;100.00
47260;BME280;32999;52.412;4.890;2022-11-18T05:16:54;99809.97;;;8.59;100.00
47260;BME280;32999;52.412;4.890;2022-11-18T05:28:38;99830.75;;;8.36;100.00
47260;BME280;32999;52.412;4.890;2022-11-18T06:04:18;99849.72;;;8.67;100.00
47260;BME280;32999;52.412;4.890;2022-11-18T06:09:52;99845.88;;;8.76;100.00
47260;BME280;32999;52.412;4.890;2022-11-18T06:15:11;99860.09;;;8.97;100.00
47260;BME280;32999;52.412;4.890;2022-11-18T06:20:19;99798.53;;;8.65;100.00
47260;BME280;32999;52.412;4.890;2022-11-18T06:25:24;99853.72;;;8.84;100.00
47260;BME280;32999;52.412;4.890;2022-11-18T06:30:27;99887.19;;;9.00;100.00
47260;BME280;32999;52.412;4.890;2022-11-18T06:36:02;99884.09;;;8.97;100.00
47260;BME280;32999;52.412;4.890;2022-11-18T07:05:17;99867.69;;;8.52;100.00
47260;BME280;32999;52.412;4.890;2022-11-18T07:10:27;99921.78;;;8.94;100.00
47260;BME280;32999;52.412;4.890;2022-11-18T07:16:03;99816.69;;;8.20;100.00
47260;BME280;32999;52.412;4.890;2022-11-18T07:28:08;99990.53;;;9.05;100.00
47260;BME280;32999;52.412;4.890;2022-11-18T07:45:34;99996.22;;;8.95;100.00
47260;BME280;32999;52.412;4.890;2022-11-18T07:57:45;100020.47;;;8.72;100.00
47260;BME280;32999;52.412;4.890;2022-11-18T08:03:41;100035.16;;;8.90;100.00
47260;BME280;32999;52.412;4.890;2022-11-18T08:08:59;100035.41;;;9.01;100.00
47260;BME280;32999;52.412;4.890;2022-11-18T08:24:56;100074.06;;;9.18;100.00
47260;BME280;32999;52.412;4.890;2022-11-18T08:30:01;100013.59;;;8.91;100.00
47260;BME280;32999;52.412;4.890;2022-11-18T08:35:06;100027.34;;;8.88;100.00
47260;BME280;32999;52.412;4.890;2022-11-18T08:40:08;100062.84;;;9.30;100.00
47260;BME280;32999;52.412;4.890;2022-11-18T08:45:10;100036.91;;;9.10;100.00
47260;BME280;32999;52.412;4.890;2022-11-18T08:50:14;100063.66;;;8.96;100.00
47260;BME280;32999;52.412;4.890;2022-11-18T08:55:16;100081.84;;;9.20;100.00
47260;BME280;32999;52.412;4.890;2022-11-18T09:00:18;99998.75;;;8.75;100.00
47260;BME280;32999;52.412;4.890;2022-11-18T09:05:23;100090.91;;;9.60;100.00
47260;BME280;32999;52.412;4.890;2022-11-18T09:10:26;100113.34;;;9.79;100.00
47260;BME280;32999;52.412;4.890;2022-11-18T09:15:51;100042.28;;;9.24;100.00
47260;BME280;32999;52.412;4.890;2022-11-18T09:20:55;100009.31;;;9.31;100.00
47260;BME280;32999;52.412;4.890;2022-11-18T09:25:57;100089.69;;;9.63;100.00
47260;BME280;32999;52.412;4.890;2022-11-18T09:31:02;100098.31;;;9.65;100.00
47260;BME280;32999;52.412;4.890;2022-11-18T09:36:11;100113.59;;;9.90;100.00
47260;BME280;32999;52.412;4.890;2022-11-18T09:41:34;100044.63;;;9.87;100.00
47260;BME280;32999;52.412;4.890;2022-11-18T09:46:51;100138.59;;;10.24;100.00
47260;BME280;32999;52.412;4.890;2022-11-18T09:52:01;100058.59;;;9.42;100.00
47260;BME280;32999;52.412;4.890;2022-11-18T09:57:10;100091.03;;;9.86;100.00
47260;BME280;32999;52.412;4.890;2022-11-18T10:02:27;100071.13;;;10.02;100.00
47260;BME280;32999;52.412;4.890;2022-11-18T10:07:42;100099.50;;;10.16;100.00
47260;BME280;32999;52.412;4.890;2022-11-18T10:12:52;100067.47;;;10.16;100.00
47260;BME280;32999;52.412;4.890;2022-11-18T10:18:04;100146.69;;;10.57;100.00
47260;BME280;32999;52.412;4.890;2022-11-18T10:23:16;100125.09;;;10.39;100.00
47260;BME280;32999;52.412;4.890;2022-11-18T10:28:22;100191.69;;;10.67;100.00
47260;BME280;32999;52.412;4.890;2022-11-18T10:33:25;100196.19;;;10.46;100.00
47260;BME280;32999;52.412;4.890;2022-11-18T10:38:29;100121.56;;;10.32;100.00
47260;BME280;32999;52.412;4.890;2022-11-18T10:43:44;100209.44;;;10.87;100.00
47260;BME280;32999;52.412;4.890;2022-11-18T10:49:10;100106.78;;;10.29;100.00
47260;BME280;32999;52.412;4.890;2022-11-18T10:54:15;100139.66;;;10.36;100.00
47260;BME280;32999;52.412;4.890;2022-11-18T10:59:25;100213.16;;;11.33;100.00
47260;BME280;32999;52.412;4.890;2022-11-18T11:04:29;100201.63;;;11.06;100.00
47260;BME280;32999;52.412;4.890;2022-11-18T11:09:32;100200.81;;;11.25;100.00
47260;BME280;32999;52.412;4.890;2022-11-18T11:14:39;100208.63;;;11.07;100.00
47260;BME280;32999;52.412;4.890;2022-11-18T11:19:50;100189.50;;;11.30;100.00
47260;BME280;32999;52.412;4.890;2022-11-18T11:24:54;100206.34;;;11.43;100.00
47260;BME280;32999;52.412;4.890;2022-11-18T11:30:14;100214.59;;;11.35;100.00
47260;BME280;32999;52.412;4.890;2022-11-18T11:35:18;100222.38;;;10.90;100.00
47260;BME280;32999;52.412;4.890;2022-11-18T11:40:29;100077.00;;;10.78;100.00
47260;BME280;32999;52.412;4.890;2022-11-18T11:45:38;100227.75;;;11.76;100.00
47260;BME280;32999;52.412;4.890;2022-11-18T11:50:49;100247.53;;;11.29;100.00
47260;BME280;32999;52.412;4.890;2022-11-18T11:56:05;100233.91;;;11.64;100.00
47260;BME280;32999;52.412;4.890;2022-11-18T12:01:18;100240.06;;;11.71;100.00
47260;BME280;32999;52.412;4.890;2022-11-18T12:06:21;100250.78;;;11.64;100.00
47260;BME280;32999;52.412;4.890;2022-11-18T12:11:32;100259.88;;;11.50;100.00
47260;BME280;32999;52.412;4.890;2022-11-18T12:16:41;100239.69;;;11.14;100.00
47260;BME280;32999;52.412;4.890;2022-11-18T12:21:57;100265.63;;;11.53;100.00
47260;BME280;32999;52.412;4.890;2022-11-18T12:27:12;100261.09;;;11.47;100.00
47260;BME280;32999;52.412;4.890;2022-11-18T12:32:33;100191.16;;;11.31;100.00
47260;BME280;32999;52.412;4.890;2022-11-18T12:37:45;100237.59;;;11.76;100.00
47260;BME280;32999;52.412;4.890;2022-11-18T12:42:59;100286.63;;;11.70;100.00
47260;BME280;32999;52.412;4.890;2022-11-18T12:48:30;100275.09;;;11.49;100.00
47260;BME280;32999;52.412;4.890;2022-11-18T12:53:36;100105.75;;;10.37;100.00
47260;BME280;32999;52.412;4.890;2022-11-18T12:58:45;100176.28;;;10.69;100.00
47260;BME280;32999;52.412;4.890;2022-11-18T13:03:47;100223.22;;;10.98;100.00
47260;BME280;32999;52.412;4.890;2022-11-18T13:08:52;100286.00;;;11.28;100.00
47260;BME280;32999;52.412;4.890;2022-11-18T13:13:56;100263.13;;;10.99;100.00
47260;BME280;32999;52.412;4.890;2022-11-18T13:19:20;100289.06;;;11.05;100.00
47260;BME280;32999;52.412;4.890;2022-11-18T13:24:22;100202.00;;;10.15;100.00
47260;BME280;32999;52.412;4.890;2022-11-18T13:29:34;100316.97;;;10.89;100.00
47260;BME280;32999;52.412;4.890;2022-11-18T13:34:43;100300.53;;;10.86;100.00
47260;BME280;32999;52.412;4.890;2022-11-18T13:39:46;100237.78;;;10.21;100.00
47260;BME280;32999;52.412;4.890;2022-11-18T13:44:54;100327.34;;;11.19;100.00
47260;BME280;32999;52.412;4.890;2022-11-18T13:50:05;100189.41;;;10.50;100.00
47260;BME280;32999;52.412;4.890;2022-11-18T13:55:16;100288.06;;;11.13;100.00
47260;BME280;32999;52.412;4.890;2022-11-18T14:00:24;100319.97;;;11.54;100.00
47260;BME280;32999;52.412;4.890;2022-11-18T14:05:26;100317.50;;;11.66;100.00
47260;BME280;32999;52.412;4.890;2022-11-18T14:10:32;100203.66;;;10.77;100.00
47260;BME280;32999;52.412;4.890;2022-11-18T14:15:38;100342.44;;;11.92;100.00
47260;BME280;32999;52.412;4.890;2022-11-18T14:20:48;100276.28;;;11.14;100.00
47260;BME280;32999;52.412;4.890;2022-11-18T14:25:50;100262.13;;;11.13;100.00
47260;BME280;32999;52.412;4.890;2022-11-18T14:30:58;100350.03;;;11.76;100.00
47260;BME280;32999;52.412;4.890;2022-11-18T14:36:02;100251.19;;;10.88;100.00
47260;BME280;32999;52.412;4.890;2022-11-18T14:41:13;100270.13;;;11.07;100.00
47260;BME280;32999;52.412;4.890;2022-11-18T14:46:18;100282.44;;;10.95;100.00
47260;BME280;32999;52.412;4.890;2022-11-18T14:51:20;100377.19;;;11.46;100.00
47260;BME280;32999;52.412;4.890;2022-11-18T14:56:26;100318.63;;;10.90;100.00
47260;BME280;32999;52.412;4.890;2022-11-18T15:01:30;100394.13;;;11.60;100.00
47260;BME280;32999;52.412;4.890;2022-11-18T15:06:32;100341.53;;;11.19;100.00
47260;BME280;32999;52.412;4.890;2022-11-18T15:11:34;100345.66;;;11.22;100.00
47260;BME280;32999;52.412;4.890;2022-11-18T15:16:38;100320.16;;;11.13;100.00
47260;BME280;32999;52.412;4.890;2022-11-18T15:21:39;100402.63;;;11.16;100.00
47260;BME280;32999;52.412;4.890;2022-11-18T15:26:43;100350.19;;;10.67;100.00
47260;BME280;32999;52.412;4.890;2022-11-18T15:31:47;100412.94;;;11.19;100.00
47260;BME280;32999;52.412;4.890;2022-11-18T15:36:49;100435.44;;;11.38;100.00
47260;BME280;32999;52.412;4.890;2022-11-18T15:41:51;100438.53;;;10.94;100.00
47260;BME280;32999;52.412;4.890;2022-11-18T15:46:55;100286.19;;;9.77;100.00
47260;BME280;32999;52.412;4.890;2022-11-18T15:51:57;100372.63;;;10.32;100.00
47260;BME280;32999;52.412;4.890;2022-11-18T15:56:59;100421.72;;;10.65;100.00
47260;BME280;32999;52.412;4.890;2022-11-18T16:02:02;100378.84;;;10.39;100.00
47260;BME280;32999;52.412;4.890;2022-11-18T16:07:04;100451.91;;;10.87;100.00
47260;BME280;32999;52.412;4.890;2022-11-18T16:12:07;100362.75;;;10.04;100.00
47260;BME280;32999;52.412;4.890;2022-11-18T16:17:27;100456.97;;;10.75;100.00
47260;BME280;32999;52.412;4.890;2022-11-18T16:22:29;100446.53;;;10.52;100.00
47260;BME280;32999;52.412;4.890;2022-11-18T16:27:31;100419.56;;;10.47;100.00
47260;BME280;32999;52.412;4.890;2022-11-18T16:32:34;100421.72;;;10.65;100.00
47260;BME280;32999;52.412;4.890;2022-11-18T16:37:36;100454.94;;;10.49;100.00
47260;BME280;32999;52.412;4.890;2022-11-18T16:42:37;100392.75;;;10.28;100.00
47260;BME280;32999;52.412;4.890;2022-11-18T16:47:40;100390.97;;;10.13;100.00
47260;BME280;32999;52.412;4.890;2022-11-18T16:52:42;100504.69;;;10.78;100.00
47260;BME280;32999;52.412;4.890;2022-11-18T16:57:44;100449.78;;;10.48;100.00
47260;BME280;32999;52.412;4.890;2022-11-18T17:02:58;100498.88;;;11.03;100.00
47260;BME280;32999;52.412;4.890;2022-11-18T17:08:13;100494.91;;;10.64;100.00
47260;BME280;32999;52.412;4.890;2022-11-18T17:13:15;100436.78;;;10.38;100.00
47260;BME280;32999;52.412;4.890;2022-11-18T17:18:18;100451.19;;;10.44;100.00
47260;BME280;32999;52.412;4.890;2022-11-18T17:23:19;100536.19;;;10.89;100.00
47260;BME280;32999;52.412;4.890;2022-11-18T17:28:21;100530.00;;;10.82;100.00
47260;BME280;32999;52.412;4.890;2022-11-18T17:33:24;100530.19;;;10.53;100.00
47260;BME280;32999;52.412;4.890;2022-11-18T17:38:26;100455.97;;;9.78;100.00
47260;BME280;32999;52.412;4.890;2022-11-18T17:43:28;100545.09;;;10.62;100.00
47260;BME280;32999;52.412;4.890;2022-11-18T17:48:32;100558.06;;;10.44;100.00
47260;BME280;32999;52.412;4.890;2022-11-18T17:53:33;100562.31;;;10.60;100.00
47260;BME280;32999;52.412;4.890;2022-11-18T17:58:35;100516.44;;;9.71;100.00
47260;BME280;32999;52.412;4.890;2022-11-18T18:03:38;100576.41;;;10.26;100.00
47260;BME280;32999;52.412;4.890;2022-11-18T18:08:40;100595.53;;;9.93;100.00
47260;BME280;32999;52.412;4.890;2022-11-18T18:13:42;100603.38;;;9.80;100.00
47260;BME280;32999;52.412;4.890;2022-11-18T18:19:04;100624.38;;;9.68;100.00
47260;BME280;32999;52.412;4.890;2022-11-18T18:24:06;100606.28;;;9.64;100.00
47260;BME280;32999;52.412;4.890;2022-11-18T18:29:10;100621.06;;;9.22;100.00
47260;BME280;32999;52.412;4.890;2022-11-18T18:34:26;100621.69;;;8.95;100.00
47260;BME280;32999;52.412;4.890;2022-11-18T18:39:34;100631.50;;;8.94;100.00
47260;BME280;32999;52.412;4.890;2022-11-18T19:26:29;100683.00;;;7.79;100.00
47260;BME280;32999;52.412;4.890;2022-11-18T19:31:34;100719.31;;;7.64;100.00
47260;BME280;32999;52.412;4.890;2022-11-18T19:51:31;100702.03;;;7.43;100.00
47260;BME280;32999;52.412;4.890;2022-11-18T22:44:22;100900.03;;;4.63;100.00
